createdAt,value
2022-09-03T00:00:15.060Z,13.25
2022-09-03T00:03:16.477Z,13.31
2022-09-03T00:06:17.700Z,13.31
2022-09-03T00:09:36.101Z,13.38
2022-09-03T00:12:34.701Z,13.38
2022-09-03T00:15:24.716Z,13.44
2022-09-03T00:18:22.224Z,13.44
2022-09-03T00:21:22.542Z,13.50
2022-09-03T00:24:15.623Z,13.56
2022-09-03T00:27:11.673Z,13.56
2022-09-03T00:30:21.467Z,13.56
2022-09-03T00:33:27.375Z,13.63
2022-09-03T00:36:45.218Z,13.63
2022-09-03T00:39:33.766Z,13.69
2022-09-03T00:43:16.323Z,13.63
2022-09-03T00:46:51.283Z,13.56
2022-09-03T00:49:48.545Z,13.44
2022-09-03T00:53:00.944Z,13.44
2022-09-03T00:56:25.138Z,13.38
2022-09-03T00:59:35.908Z,13.19
2022-09-03T01:02:58.565Z,13.06
2022-09-03T01:06:13.449Z,13.00
2022-09-03T01:09:09.670Z,12.75
2022-09-03T01:12:03.480Z,12.50
2022-09-03T01:15:06.856Z,12.44
2022-09-03T01:18:21.888Z,12.38
2022-09-03T01:21:28.229Z,12.31
2022-09-03T01:24:35.965Z,12.31
2022-09-03T01:27:50.793Z,12.25
2022-09-03T01:30:49.335Z,12.13
2022-09-03T01:34:25.843Z,12.06
2022-09-03T01:37:39.110Z,12.00
2022-09-03T01:41:36.790Z,11.94
2022-09-03T01:45:14.293Z,11.81
2022-09-03T01:48:12.117Z,11.94
2022-09-03T01:51:19.809Z,11.88
2022-09-03T01:54:38.654Z,11.81
2022-09-03T01:58:06.763Z,11.75
2022-09-03T02:01:07.710Z,11.63
2022-09-03T02:04:00.124Z,11.63
2022-09-03T02:06:49.058Z,11.63
2022-09-03T02:09:36.730Z,11.63
2022-09-03T02:12:25.466Z,11.56
2022-09-03T02:15:19.526Z,11.50
2022-09-03T02:18:17.293Z,11.50
2022-09-03T02:21:05.616Z,11.44
2022-09-03T02:23:54.109Z,11.44
2022-09-03T02:26:41.917Z,11.38
2022-09-03T02:29:31.038Z,11.38
2022-09-03T02:32:19.193Z,11.31
2022-09-03T02:35:08.140Z,11.19
2022-09-03T02:37:56.360Z,11.13
2022-09-03T02:40:45.860Z,11.06
2022-09-03T02:43:45.783Z,11.00
2022-09-03T02:47:03.055Z,10.94
2022-09-03T02:49:52.745Z,10.88
2022-09-03T02:52:40.967Z,10.88
2022-09-03T02:55:30.665Z,10.81
2022-09-03T02:58:18.665Z,10.88
2022-09-03T03:01:06.745Z,10.94
2022-09-03T03:03:54.640Z,11.06
2022-09-03T03:06:42.719Z,11.19
2022-09-03T03:09:35.783Z,11.19
2022-09-03T03:12:23.613Z,11.31
2022-09-03T03:15:11.649Z,11.38
2022-09-03T03:17:59.659Z,11.38
2022-09-03T03:20:50.355Z,11.38
2022-09-03T03:23:39.752Z,11.44
2022-09-03T03:26:27.269Z,11.44
2022-09-03T03:29:20.871Z,11.44
2022-09-03T03:32:09.101Z,11.44
2022-09-03T03:34:57.097Z,11.38
2022-09-03T03:37:45.448Z,11.31
2022-09-03T03:40:35.016Z,11.19
2022-09-03T03:43:23.055Z,11.13
2022-09-03T03:46:12.178Z,11.06
2022-09-03T03:49:01.359Z,11.06
2022-09-03T03:51:49.361Z,11.13
2022-09-03T03:54:37.683Z,11.19
2022-09-03T03:57:26.046Z,11.13
2022-09-03T04:00:15.581Z,11.06
2022-09-03T04:03:04.775Z,10.94
2022-09-03T04:05:59.346Z,10.81
2022-09-03T04:08:49.764Z,10.75
2022-09-03T04:11:37.454Z,10.69
2022-09-03T04:14:27.356Z,10.63
2022-09-03T04:17:15.799Z,10.50
2022-09-03T04:20:04.813Z,10.44
2022-09-03T04:22:52.694Z,10.38
2022-09-03T04:25:42.097Z,10.44
2022-09-03T04:28:30.065Z,10.50
2022-09-03T04:31:21.347Z,10.75
2022-09-03T04:34:09.640Z,10.94
2022-09-03T04:37:00.718Z,10.88
2022-09-03T04:39:48.805Z,10.81
2022-09-03T04:42:36.741Z,10.75
2022-09-03T04:45:24.850Z,10.88
2022-09-03T04:48:13.868Z,11.06
2022-09-03T04:51:07.535Z,11.25
2022-09-03T04:54:00.359Z,11.44
2022-09-03T04:56:48.888Z,11.50
2022-09-03T04:59:37.243Z,11.63
2022-09-03T05:02:25.617Z,11.69
2022-09-03T05:05:13.971Z,11.75
2022-09-03T05:08:02.267Z,11.75
2022-09-03T05:10:50.115Z,11.75
2022-09-03T05:13:43.380Z,11.69
2022-09-03T05:16:31.636Z,11.63
2022-09-03T05:19:19.864Z,11.50
2022-09-03T05:22:08.315Z,11.44
2022-09-03T05:24:58.261Z,11.44
2022-09-03T05:27:47.206Z,11.50
2022-09-03T05:30:36.667Z,11.50
2022-09-03T05:33:25.138Z,11.63
2022-09-03T05:36:17.182Z,11.63
2022-09-03T05:39:09.563Z,11.69
2022-09-03T05:41:57.491Z,11.94
2022-09-03T05:44:45.705Z,12.06
2022-09-03T05:47:33.620Z,12.25
2022-09-03T05:50:21.587Z,12.44
2022-09-03T05:53:09.753Z,12.69
2022-09-03T05:56:00.353Z,12.75
2022-09-03T05:58:52.722Z,13.06
2022-09-03T06:01:50.702Z,14.06
2022-09-03T06:04:40.295Z,15.00
2022-09-03T06:07:28.388Z,15.88
2022-09-03T06:10:20.225Z,16.31
2022-09-03T06:13:10.876Z,15.63
2022-09-03T06:16:08.703Z,16.75
2022-09-03T06:18:57.003Z,16.44
2022-09-03T06:21:48.521Z,16.25
2022-09-03T06:24:37.000Z,16.75
2022-09-03T06:27:26.213Z,16.81
2022-09-03T06:30:17.214Z,16.44
2022-09-03T06:33:04.877Z,15.75
2022-09-03T06:35:58.190Z,15.88
2022-09-03T06:38:47.630Z,15.88
2022-09-03T06:41:36.155Z,16.00
2022-09-03T06:44:24.327Z,15.50
2022-09-03T06:47:12.244Z,15.13
2022-09-03T06:50:02.329Z,15.19
2022-09-03T06:52:57.059Z,15.44
2022-09-03T06:55:53.867Z,15.94
2022-09-03T06:58:45.592Z,16.38
2022-09-03T07:01:34.987Z,16.38
2022-09-03T07:04:25.175Z,16.13
2022-09-03T07:07:14.203Z,16.13
2022-09-03T07:10:02.567Z,16.06
2022-09-03T07:12:50.524Z,16.50
2022-09-03T07:15:38.483Z,16.31
2022-09-03T07:18:26.254Z,15.69
2022-09-03T07:21:27.221Z,15.69
2022-09-03T07:24:15.476Z,15.44
2022-09-03T07:27:09.836Z,15.38
2022-09-03T07:30:00.686Z,15.69
2022-09-03T07:32:51.154Z,15.75
2022-09-03T07:35:39.150Z,15.38
2022-09-03T07:38:27.034Z,15.25
2022-09-03T07:41:26.807Z,15.13
2022-09-03T07:44:19.981Z,15.56
2022-09-03T07:47:10.252Z,16.56
2022-09-03T07:49:58.209Z,17.56
2022-09-03T07:52:46.128Z,18.50
2022-09-03T07:55:34.134Z,19.06
2022-09-03T07:58:24.267Z,19.00
2022-09-03T08:01:18.197Z,20.06
2022-09-03T08:04:09.710Z,20.81
2022-09-03T08:06:59.509Z,21.19
2022-09-03T08:09:51.151Z,20.88
2022-09-03T08:12:39.420Z,20.50
2022-09-03T08:15:27.875Z,20.13
2022-09-03T08:18:15.966Z,20.00
2022-09-03T08:21:16.314Z,19.63
2022-09-03T08:24:04.864Z,19.19
2022-09-03T08:26:52.814Z,18.94
2022-09-03T08:29:40.696Z,19.50
2022-09-03T08:32:31.044Z,19.88
2022-09-03T08:35:22.133Z,20.19
2022-09-03T08:38:11.013Z,19.94
2022-09-03T08:41:17.535Z,20.06
2022-09-03T08:44:33.444Z,20.56
2022-09-03T08:47:46.644Z,22.69
2022-09-03T08:50:56.208Z,27.75
2022-09-03T08:53:56.252Z,28.00
2022-09-03T08:56:44.836Z,26.88
2022-09-03T08:59:33.951Z,27.63
2022-09-03T09:03:01.512Z,29.06
2022-09-03T09:06:17.193Z,30.06
2022-09-03T09:09:39.415Z,31.25
2022-09-03T09:12:44.201Z,31.44
2022-09-03T09:16:40.557Z,36.06
2022-09-03T09:20:16.794Z,30.13
2022-09-03T09:23:09.228Z,35.50
2022-09-03T09:26:01.847Z,37.13
2022-09-03T09:29:09.452Z,42.31
2022-09-03T09:31:58.234Z,43.63
2022-09-03T09:34:51.837Z,38.19
2022-09-03T09:37:51.209Z,44.75
2022-09-03T09:40:45.642Z,50.88
2022-09-03T09:43:34.068Z,52.25
2022-09-03T09:46:31.253Z,47.44
2022-09-03T09:49:36.045Z,44.63
2022-09-03T09:52:30.436Z,35.81
2022-09-03T09:55:20.607Z,29.69
2022-09-03T09:58:14.701Z,30.06
2022-09-03T10:01:13.565Z,39.25
2022-09-03T10:04:24.558Z,44.88
2022-09-03T10:07:33.283Z,39.56
2022-09-03T10:10:22.277Z,42.06
2022-09-03T10:13:31.163Z,47.25
2022-09-03T10:16:36.296Z,45.81
2022-09-03T10:19:40.854Z,46.69
2022-09-03T10:22:35.234Z,47.94
2022-09-03T10:25:29.893Z,45.13
2022-09-03T10:28:18.599Z,46.69
2022-09-03T10:31:37.032Z,36.81
2022-09-03T10:34:59.047Z,33.13
2022-09-03T10:38:00.873Z,39.81
2022-09-03T10:41:09.803Z,37.88
2022-09-03T10:44:19.762Z,33.13
2022-09-03T10:47:19.826Z,40.00
2022-09-03T10:50:59.929Z,42.44
2022-09-03T10:54:36.094Z,41.25
2022-09-03T10:58:11.476Z,37.06
2022-09-03T11:01:22.411Z,41.13
2022-09-03T11:05:01.216Z,38.81
2022-09-03T11:08:03.659Z,29.75
2022-09-03T11:11:00.895Z,33.13
2022-09-03T11:14:00.322Z,42.69
2022-09-03T11:17:03.176Z,46.81
2022-09-03T11:19:58.979Z,46.44
2022-09-03T11:22:49.778Z,39.13
2022-09-03T11:25:54.830Z,37.31
2022-09-03T11:28:57.249Z,37.69
2022-09-03T11:31:58.062Z,40.63
2022-09-03T11:34:52.736Z,44.50
2022-09-03T11:38:00.012Z,45.06
2022-09-03T11:41:27.373Z,44.38
2022-09-03T11:45:16.783Z,42.56
2022-09-03T11:48:48.309Z,42.44
2022-09-03T11:51:42.145Z,44.06
2022-09-03T11:54:33.656Z,40.19
2022-09-03T11:57:30.795Z,40.13
2022-09-03T12:00:21.765Z,32.44
2022-09-03T12:03:16.471Z,29.13
2022-09-03T12:06:49.663Z,27.00
2022-09-03T12:10:19.431Z,24.69
2022-09-03T12:13:40.622Z,23.44
2022-09-03T12:16:56.699Z,22.88
2022-09-03T12:19:56.377Z,21.75
2022-09-03T12:22:44.191Z,21.31
2022-09-03T12:25:32.535Z,20.88
2022-09-03T12:28:26.393Z,20.69
2022-09-03T12:31:24.755Z,20.44
2022-09-03T12:34:20.196Z,20.44
2022-09-03T12:40:32.922Z,19.81
2022-09-03T12:46:34.440Z,19.44
2022-09-03T12:49:30.427Z,19.06
2022-09-03T12:52:33.171Z,18.94
2022-09-03T12:55:54.112Z,18.94
2022-09-03T12:59:02.356Z,18.88
2022-09-03T13:01:58.762Z,18.31
2022-09-03T13:04:47.512Z,18.31
2022-09-03T13:07:39.057Z,18.19
2022-09-03T13:10:39.062Z,18.25
2022-09-03T13:13:36.781Z,18.19
2022-09-03T13:16:46.792Z,18.38
2022-09-03T13:19:51.034Z,18.38
2022-09-03T19:45:26.634Z,9.31
2022-09-03T19:49:18.224Z,9.19
2022-09-03T19:52:40.148Z,9.13
2022-09-03T19:55:55.028Z,9.06
2022-09-03T19:59:29.717Z,9.06
2022-09-03T20:02:36.326Z,8.94
2022-09-03T20:05:43.863Z,8.94
2022-09-03T20:08:52.835Z,8.88
2022-09-03T20:11:41.915Z,8.88
2022-09-03T20:14:33.219Z,8.81
2022-09-03T20:18:19.684Z,8.81
2022-09-03T20:21:23.740Z,8.75
2022-09-03T20:24:34.234Z,8.75
2022-09-03T20:27:58.751Z,8.69
2022-09-03T20:31:25.089Z,8.63
2022-09-03T20:34:35.330Z,8.63
2022-09-03T20:37:30.157Z,8.63
2022-09-03T20:40:40.158Z,8.63
2022-09-03T20:43:59.054Z,8.63
2022-09-03T20:47:05.800Z,8.56
2022-09-03T20:50:22.246Z,8.56
2022-09-03T20:53:23.726Z,8.56
2022-09-03T20:56:35.739Z,8.56
2022-09-03T20:59:36.104Z,8.50
2022-09-03T21:03:20.121Z,8.50
2022-09-03T21:06:39.120Z,8.50
2022-09-03T21:10:05.322Z,8.56
2022-09-03T21:13:47.731Z,8.56
2022-09-03T21:17:00.544Z,8.56
2022-09-03T21:20:16.547Z,8.50
2022-09-03T21:23:21.929Z,8.50
2022-09-03T21:26:27.648Z,8.50
2022-09-03T21:29:32.999Z,8.63
2022-09-03T21:32:29.434Z,8.63
2022-09-03T21:35:43.090Z,8.69
2022-09-03T21:38:38.591Z,8.75
2022-09-03T21:41:49.700Z,8.81
2022-09-03T21:45:07.814Z,8.81
2022-09-03T21:48:18.550Z,8.75
2022-09-03T21:51:22.103Z,8.81
2022-09-03T21:54:19.164Z,8.75
2022-09-03T21:57:40.764Z,8.81
2022-09-03T22:00:32.792Z,8.81
2022-09-03T22:03:21.824Z,8.81
2022-09-03T22:06:25.769Z,8.81
2022-09-03T22:09:33.722Z,8.81
2022-09-03T22:12:40.187Z,8.81
2022-09-03T22:15:29.965Z,8.81
2022-09-03T22:18:28.812Z,8.81
2022-09-03T22:21:37.218Z,8.88
2022-09-03T22:24:48.218Z,8.94
2022-09-03T22:27:50.044Z,9.00
2022-09-03T22:31:13.032Z,9.00
2022-09-03T22:34:46.399Z,9.25
2022-09-03T22:38:01.909Z,9.31
2022-09-03T22:41:16.267Z,9.38
2022-09-03T22:44:22.879Z,9.50
2022-09-03T22:48:02.844Z,9.44
2022-09-03T22:51:00.637Z,9.44
2022-09-03T22:54:05.283Z,9.44
2022-09-03T22:56:56.319Z,9.50
2022-09-03T23:00:09.722Z,9.44
2022-09-03T23:03:07.971Z,9.44
2022-09-03T23:06:13.436Z,9.44
2022-09-03T23:09:36.994Z,9.50
2022-09-03T23:12:46.435Z,9.50
2022-09-03T23:15:38.700Z,9.50
2022-09-03T23:18:32.553Z,9.63
2022-09-03T23:21:41.181Z,9.63
2022-09-03T23:24:50.273Z,9.63
2022-09-03T23:27:53.682Z,9.63
2022-09-03T23:30:41.905Z,9.56
2022-09-03T23:33:29.568Z,9.50
2022-09-03T23:36:50.997Z,9.69
2022-09-03T23:40:16.380Z,9.69
2022-09-03T23:43:14.380Z,9.69
2022-09-03T23:46:19.065Z,9.75
2022-09-03T23:49:27.400Z,9.75
2022-09-03T23:52:20.980Z,9.94
2022-09-03T23:55:41.608Z,9.81
2022-09-03T23:58:44.351Z,9.75
